sensor_id;sensor_type;location;lat;lon;timestamp;P1;durP1;ratioP1;P2;durP2;ratioP2
69161;SDS011;56269;51.738;21.652;2022-08-01T00:00:39;18.77;;;9.10;;
69161;SDS011;56269;51.738;21.652;2022-08-01T00:03:08;15.95;;;7.80;;
69161;SDS011;56269;51.738;21.652;2022-08-01T00:05:34;14.48;;;7.03;;
69161;SDS011;56269;51.738;21.652;2022-08-01T00:08:00;19.00;;;9.02;;
69161;SDS011;56269;51.738;21.652;2022-08-01T00:10:26;15.63;;;8.50;;
69161;SDS011;56269;51.738;21.652;2022-08-01T00:12:52;17.88;;;9.25;;
69161;SDS011;56269;51.738;21.652;2022-08-01T00:15:18;15.23;;;7.43;;
69161;SDS011;56269;51.738;21.652;2022-08-01T00:17:44;17.15;;;8.50;;
69161;SDS011;56269;51.738;21.652;2022-08-01T00:20:13;16.60;;;9.43;;
69161;SDS011;56269;51.738;21.652;2022-08-01T00:22:40;19.88;;;10.13;;
69161;SDS011;56269;51.738;21.652;2022-08-01T00:25:06;18.65;;;9.02;;
69161;SDS011;56269;51.738;21.652;2022-08-01T00:27:32;17.42;;;9.32;;
69161;SDS011;56269;51.738;21.652;2022-08-01T00:29:58;16.73;;;8.27;;
69161;SDS011;56269;51.738;21.652;2022-08-01T00:32:24;17.95;;;9.02;;
69161;SDS011;56269;51.738;21.652;2022-08-01T00:34:51;17.65;;;9.35;;
69161;SDS011;56269;51.738;21.652;2022-08-01T00:37:17;16.48;;;8.77;;
69161;SDS011;56269;51.738;21.652;2022-08-01T00:39:43;16.93;;;8.87;;
69161;SDS011;56269;51.738;21.652;2022-08-01T00:42:10;21.77;;;10.48;;
69161;SDS011;56269;51.738;21.652;2022-08-01T00:44:37;23.98;;;11.07;;
69161;SDS011;56269;51.738;21.652;2022-08-01T00:47:04;24.80;;;11.18;;
69161;SDS011;56269;51.738;21.652;2022-08-01T00:49:31;24.75;;;11.10;;
69161;SDS011;56269;51.738;21.652;2022-08-01T00:51:57;28.00;;;13.07;;
69161;SDS011;56269;51.738;21.652;2022-08-01T00:54:24;26.42;;;12.32;;
69161;SDS011;56269;51.738;21.652;2022-08-01T00:56:52;24.80;;;11.77;;
69161;SDS011;56269;51.738;21.652;2022-08-01T00:59:20;28.08;;;12.40;;
69161;SDS011;56269;51.738;21.652;2022-08-01T01:01:47;22.33;;;11.38;;
69161;SDS011;56269;51.738;21.652;2022-08-01T01:04:14;22.90;;;11.83;;
69161;SDS011;56269;51.738;21.652;2022-08-01T01:06:42;27.63;;;11.85;;
69161;SDS011;56269;51.738;21.652;2022-08-01T01:14:51;24.45;;;12.00;;
69161;SDS011;56269;51.738;21.652;2022-08-01T01:17:33;25.47;;;12.07;;
69161;SDS011;56269;51.738;21.652;2022-08-01T01:20:05;25.65;;;11.55;;
69161;SDS011;56269;51.738;21.652;2022-08-01T01:28:08;22.23;;;11.90;;
69161;SDS011;56269;51.738;21.652;2022-08-01T01:30:41;19.33;;;9.20;;
69161;SDS011;56269;51.738;21.652;2022-08-01T01:33:10;21.00;;;9.95;;
69161;SDS011;56269;51.738;21.652;2022-08-01T01:35:49;20.05;;;11.73;;
69161;SDS011;56269;51.738;21.652;2022-08-01T01:38:26;21.05;;;11.90;;
69161;SDS011;56269;51.738;21.652;2022-08-01T01:40:57;22.38;;;11.07;;
69161;SDS011;56269;51.738;21.652;2022-08-01T01:43:25;22.50;;;11.37;;
69161;SDS011;56269;51.738;21.652;2022-08-01T01:45:53;21.80;;;11.18;;
69161;SDS011;56269;51.738;21.652;2022-08-01T01:48:20;24.25;;;11.52;;
69161;SDS011;56269;51.738;21.652;2022-08-01T01:50:49;21.83;;;12.18;;
69161;SDS011;56269;51.738;21.652;2022-08-01T01:53:18;22.10;;;12.23;;
69161;SDS011;56269;51.738;21.652;2022-08-01T01:55:47;24.73;;;12.33;;
69161;SDS011;56269;51.738;21.652;2022-08-01T01:58:16;25.80;;;12.27;;
69161;SDS011;56269;51.738;21.652;2022-08-01T02:00:45;26.48;;;12.75;;
69161;SDS011;56269;51.738;21.652;2022-08-01T02:03:13;22.42;;;12.00;;
69161;SDS011;56269;51.738;21.652;2022-08-01T02:05:41;25.50;;;13.05;;
69161;SDS011;56269;51.738;21.652;2022-08-01T02:08:09;25.30;;;12.43;;
69161;SDS011;56269;51.738;21.652;2022-08-01T02:10:38;25.73;;;12.10;;
69161;SDS011;56269;51.738;21.652;2022-08-01T02:13:05;28.60;;;13.10;;
69161;SDS011;56269;51.738;21.652;2022-08-01T02:15:33;24.90;;;12.63;;
69161;SDS011;56269;51.738;21.652;2022-08-01T02:18:04;22.35;;;12.38;;
69161;SDS011;56269;51.738;21.652;2022-08-01T02:20:33;25.23;;;12.73;;
69161;SDS011;56269;51.738;21.652;2022-08-01T02:23:11;28.70;;;12.98;;
69161;SDS011;56269;51.738;21.652;2022-08-01T02:28:10;26.98;;;13.45;;
69161;SDS011;56269;51.738;21.652;2022-08-01T02:30:43;23.02;;;12.60;;
69161;SDS011;56269;51.738;21.652;2022-08-01T02:33:16;29.00;;;13.20;;
69161;SDS011;56269;51.738;21.652;2022-08-01T02:35:46;25.83;;;12.35;;
69161;SDS011;56269;51.738;21.652;2022-08-01T02:38:16;27.55;;;13.10;;
69161;SDS011;56269;51.738;21.652;2022-08-01T02:40:45;25.20;;;12.55;;
69161;SDS011;56269;51.738;21.652;2022-08-01T02:43:13;26.52;;;13.75;;
69161;SDS011;56269;51.738;21.652;2022-08-01T02:45:43;29.70;;;14.33;;
69161;SDS011;56269;51.738;21.652;2022-08-01T02:48:14;28.15;;;12.05;;
69161;SDS011;56269;51.738;21.652;2022-08-01T02:50:43;27.20;;;13.50;;
69161;SDS011;56269;51.738;21.652;2022-08-01T02:53:12;25.65;;;12.73;;
69161;SDS011;56269;51.738;21.652;2022-08-01T02:55:40;23.35;;;10.32;;
69161;SDS011;56269;51.738;21.652;2022-08-01T02:58:08;22.83;;;11.43;;
69161;SDS011;56269;51.738;21.652;2022-08-01T03:00:35;22.85;;;10.70;;
69161;SDS011;56269;51.738;21.652;2022-08-01T03:03:03;23.02;;;11.43;;
69161;SDS011;56269;51.738;21.652;2022-08-01T03:05:32;23.95;;;12.40;;
69161;SDS011;56269;51.738;21.652;2022-08-01T03:07:59;21.88;;;11.32;;
69161;SDS011;56269;51.738;21.652;2022-08-01T03:10:27;21.23;;;11.17;;
69161;SDS011;56269;51.738;21.652;2022-08-01T03:12:55;22.60;;;10.75;;
69161;SDS011;56269;51.738;21.652;2022-08-01T03:15:24;23.10;;;11.15;;
69161;SDS011;56269;51.738;21.652;2022-08-01T03:17:53;21.42;;;10.43;;
69161;SDS011;56269;51.738;21.652;2022-08-01T03:20:21;18.23;;;10.38;;
69161;SDS011;56269;51.738;21.652;2022-08-01T03:22:50;17.73;;;9.70;;
69161;SDS011;56269;51.738;21.652;2022-08-01T03:25:18;16.73;;;9.77;;
69161;SDS011;56269;51.738;21.652;2022-08-01T03:27:47;20.58;;;10.07;;
69161;SDS011;56269;51.738;21.652;2022-08-01T03:30:19;19.98;;;9.75;;
69161;SDS011;56269;51.738;21.652;2022-08-01T03:32:48;17.83;;;10.43;;
69161;SDS011;56269;51.738;21.652;2022-08-01T03:35:14;13.10;;;7.43;;
69161;SDS011;56269;51.738;21.652;2022-08-01T03:37:44;14.35;;;8.88;;
69161;SDS011;56269;51.738;21.652;2022-08-01T03:40:25;16.17;;;9.10;;
69161;SDS011;56269;51.738;21.652;2022-08-01T03:42:58;16.13;;;9.63;;
69161;SDS011;56269;51.738;21.652;2022-08-01T03:45:30;14.57;;;9.15;;
69161;SDS011;56269;51.738;21.652;2022-08-01T03:48:03;17.13;;;9.53;;
69161;SDS011;56269;51.738;21.652;2022-08-01T03:50:40;16.17;;;9.48;;
69161;SDS011;56269;51.738;21.652;2022-08-01T03:53:08;14.10;;;8.77;;
69161;SDS011;56269;51.738;21.652;2022-08-01T03:55:35;16.38;;;8.52;;
69161;SDS011;56269;51.738;21.652;2022-08-01T03:58:05;14.75;;;8.95;;
69161;SDS011;56269;51.738;21.652;2022-08-01T04:00:31;15.93;;;9.17;;
69161;SDS011;56269;51.738;21.652;2022-08-01T04:02:58;13.30;;;8.82;;
69161;SDS011;56269;51.738;21.652;2022-08-01T04:05:25;14.95;;;8.82;;
69161;SDS011;56269;51.738;21.652;2022-08-01T04:07:51;14.18;;;8.82;;
69161;SDS011;56269;51.738;21.652;2022-08-01T04:10:22;14.10;;;8.70;;
69161;SDS011;56269;51.738;21.652;2022-08-01T04:12:49;13.43;;;8.10;;
69161;SDS011;56269;51.738;21.652;2022-08-01T04:15:15;13.82;;;8.48;;
69161;SDS011;56269;51.738;21.652;2022-08-01T04:17:41;16.52;;;9.00;;
69161;SDS011;56269;51.738;21.652;2022-08-01T04:20:07;14.32;;;9.07;;
69161;SDS011;56269;51.738;21.652;2022-08-01T04:22:34;14.63;;;8.50;;
69161;SDS011;56269;51.738;21.652;2022-08-01T04:25:02;15.77;;;8.57;;
69161;SDS011;56269;51.738;21.652;2022-08-01T04:27:36;14.88;;;8.68;;
69161;SDS011;56269;51.738;21.652;2022-08-01T04:30:04;14.38;;;8.63;;
69161;SDS011;56269;51.738;21.652;2022-08-01T04:32:34;16.63;;;9.13;;
69161;SDS011;56269;51.738;21.652;2022-08-01T04:35:06;15.45;;;9.40;;
69161;SDS011;56269;51.738;21.652;2022-08-01T04:37:34;14.07;;;8.83;;
69161;SDS011;56269;51.738;21.652;2022-08-01T04:40:03;15.15;;;8.63;;
69161;SDS011;56269;51.738;21.652;2022-08-01T04:42:32;16.73;;;9.10;;
69161;SDS011;56269;51.738;21.652;2022-08-01T04:44:58;16.42;;;9.05;;
69161;SDS011;56269;51.738;21.652;2022-08-01T04:47:27;13.77;;;8.57;;
69161;SDS011;56269;51.738;21.652;2022-08-01T04:49:56;15.07;;;8.63;;
69161;SDS011;56269;51.738;21.652;2022-08-01T04:52:22;15.38;;;8.70;;
69161;SDS011;56269;51.738;21.652;2022-08-01T04:54:48;15.43;;;8.73;;
69161;SDS011;56269;51.738;21.652;2022-08-01T04:57:14;17.67;;;8.57;;
69161;SDS011;56269;51.738;21.652;2022-08-01T04:59:41;14.48;;;7.93;;
69161;SDS011;56269;51.738;21.652;2022-08-01T05:04:38;15.57;;;7.85;;
69161;SDS011;56269;51.738;21.652;2022-08-01T05:07:06;12.85;;;7.68;;
69161;SDS011;56269;51.738;21.652;2022-08-01T05:09:33;14.70;;;8.20;;
69161;SDS011;56269;51.738;21.652;2022-08-01T05:12:02;11.80;;;7.00;;
69161;SDS011;56269;51.738;21.652;2022-08-01T05:14:30;14.60;;;7.87;;
69161;SDS011;56269;51.738;21.652;2022-08-01T05:16:58;13.00;;;6.45;;
69161;SDS011;56269;51.738;21.652;2022-08-01T05:19:25;12.00;;;6.60;;
69161;SDS011;56269;51.738;21.652;2022-08-01T05:21:52;12.23;;;7.03;;
69161;SDS011;56269;51.738;21.652;2022-08-01T05:24:18;13.27;;;6.47;;
69161;SDS011;56269;51.738;21.652;2022-08-01T05:26:44;10.67;;;6.27;;
69161;SDS011;56269;51.738;21.652;2022-08-01T05:29:10;11.50;;;6.32;;
69161;SDS011;56269;51.738;21.652;2022-08-01T05:31:36;10.18;;;6.40;;
69161;SDS011;56269;51.738;21.652;2022-08-01T05:34:02;10.60;;;6.93;;
69161;SDS011;56269;51.738;21.652;2022-08-01T05:36:28;14.03;;;6.47;;
69161;SDS011;56269;51.738;21.652;2022-08-01T05:38:55;11.02;;;6.35;;
69161;SDS011;56269;51.738;21.652;2022-08-01T05:41:21;11.30;;;6.32;;
69161;SDS011;56269;51.738;21.652;2022-08-01T05:43:47;13.27;;;6.38;;
69161;SDS011;56269;51.738;21.652;2022-08-01T05:46:13;10.83;;;6.90;;
69161;SDS011;56269;51.738;21.652;2022-08-01T05:48:39;11.02;;;6.70;;
69161;SDS011;56269;51.738;21.652;2022-08-01T05:51:05;11.07;;;6.68;;
69161;SDS011;56269;51.738;21.652;2022-08-01T05:53:31;18.55;;;8.07;;
69161;SDS011;56269;51.738;21.652;2022-08-01T05:56:00;11.93;;;6.90;;
69161;SDS011;56269;51.738;21.652;2022-08-01T05:58:27;10.55;;;6.43;;
69161;SDS011;56269;51.738;21.652;2022-08-01T06:00:53;12.40;;;7.10;;
69161;SDS011;56269;51.738;21.652;2022-08-01T06:03:19;14.82;;;7.35;;
69161;SDS011;56269;51.738;21.652;2022-08-01T06:05:45;11.00;;;6.77;;
69161;SDS011;56269;51.738;21.652;2022-08-01T06:08:11;12.10;;;6.70;;
69161;SDS011;56269;51.738;21.652;2022-08-01T06:10:37;10.65;;;6.53;;
69161;SDS011;56269;51.738;21.652;2022-08-01T06:13:03;10.25;;;6.40;;
69161;SDS011;56269;51.738;21.652;2022-08-01T06:15:32;9.73;;;6.10;;
69161;SDS011;56269;51.738;21.652;2022-08-01T06:17:58;11.70;;;6.20;;
69161;SDS011;56269;51.738;21.652;2022-08-01T06:20:24;11.07;;;6.53;;
69161;SDS011;56269;51.738;21.652;2022-08-01T06:22:50;12.15;;;6.03;;
69161;SDS011;56269;51.738;21.652;2022-08-01T06:25:17;10.70;;;6.50;;
69161;SDS011;56269;51.738;21.652;2022-08-01T06:27:44;10.53;;;5.73;;
69161;SDS011;56269;51.738;21.652;2022-08-01T06:30:10;10.00;;;6.00;;
69161;SDS011;56269;51.738;21.652;2022-08-01T06:32:36;11.55;;;5.50;;
69161;SDS011;56269;51.738;21.652;2022-08-01T06:35:03;9.48;;;5.20;;
69161;SDS011;56269;51.738;21.652;2022-08-01T06:37:30;16.00;;;5.27;;
69161;SDS011;56269;51.738;21.652;2022-08-01T06:40:01;7.70;;;4.90;;
69161;SDS011;56269;51.738;21.652;2022-08-01T06:42:31;7.88;;;4.45;;
69161;SDS011;56269;51.738;21.652;2022-08-01T06:47:31;9.00;;;5.15;;
69161;SDS011;56269;51.738;21.652;2022-08-01T06:49:57;7.37;;;4.40;;
69161;SDS011;56269;51.738;21.652;2022-08-01T06:52:23;10.63;;;4.20;;
69161;SDS011;56269;51.738;21.652;2022-08-01T06:54:49;8.70;;;4.30;;
69161;SDS011;56269;51.738;21.652;2022-08-01T06:57:15;7.30;;;3.92;;
69161;SDS011;56269;51.738;21.652;2022-08-01T06:59:41;7.97;;;4.13;;
69161;SDS011;56269;51.738;21.652;2022-08-01T07:02:07;7.82;;;4.10;;
69161;SDS011;56269;51.738;21.652;2022-08-01T07:04:34;10.50;;;4.55;;
69161;SDS011;56269;51.738;21.652;2022-08-01T07:07:00;7.97;;;4.00;;
69161;SDS011;56269;51.738;21.652;2022-08-01T07:09:27;8.32;;;4.43;;
69161;SDS011;56269;51.738;21.652;2022-08-01T07:11:53;8.30;;;3.80;;
69161;SDS011;56269;51.738;21.652;2022-08-01T07:14:20;7.93;;;3.58;;
69161;SDS011;56269;51.738;21.652;2022-08-01T07:16:47;6.82;;;3.35;;
69161;SDS011;56269;51.738;21.652;2022-08-01T07:19:13;8.05;;;3.40;;
69161;SDS011;56269;51.738;21.652;2022-08-01T07:21:39;6.10;;;3.10;;
69161;SDS011;56269;51.738;21.652;2022-08-01T07:24:06;7.35;;;3.47;;
69161;SDS011;56269;51.738;21.652;2022-08-01T07:26:33;8.65;;;3.58;;
69161;SDS011;56269;51.738;21.652;2022-08-01T07:29:00;7.50;;;3.30;;
69161;SDS011;56269;51.738;21.652;2022-08-01T07:31:26;7.93;;;3.20;;
69161;SDS011;56269;51.738;21.652;2022-08-01T07:33:52;7.10;;;3.17;;
69161;SDS011;56269;51.738;21.652;2022-08-01T07:36:18;6.50;;;2.97;;
69161;SDS011;56269;51.738;21.652;2022-08-01T07:38:44;7.00;;;3.00;;
69161;SDS011;56269;51.738;21.652;2022-08-01T07:41:11;6.78;;;3.00;;
69161;SDS011;56269;51.738;21.652;2022-08-01T07:43:37;5.88;;;2.70;;
69161;SDS011;56269;51.738;21.652;2022-08-01T07:46:03;7.67;;;2.70;;
69161;SDS011;56269;51.738;21.652;2022-08-01T07:48:30;5.57;;;2.90;;
69161;SDS011;56269;51.738;21.652;2022-08-01T07:50:56;8.18;;;2.95;;
69161;SDS011;56269;51.738;21.652;2022-08-01T07:53:22;6.15;;;3.08;;
69161;SDS011;56269;51.738;21.652;2022-08-01T07:55:48;6.60;;;3.00;;
69161;SDS011;56269;51.738;21.652;2022-08-01T07:58:15;6.47;;;2.90;;
69161;SDS011;56269;51.738;21.652;2022-08-01T08:00:41;5.97;;;2.70;;
69161;SDS011;56269;51.738;21.652;2022-08-01T08:03:08;6.72;;;3.20;;
69161;SDS011;56269;51.738;21.652;2022-08-01T08:05:35;6.57;;;2.90;;
69161;SDS011;56269;51.738;21.652;2022-08-01T08:08:04;6.15;;;2.80;;
69161;SDS011;56269;51.738;21.652;2022-08-01T08:10:31;9.13;;;3.00;;
69161;SDS011;56269;51.738;21.652;2022-08-01T08:12:58;5.88;;;3.00;;
69161;SDS011;56269;51.738;21.652;2022-08-01T08:15:25;6.68;;;3.00;;
69161;SDS011;56269;51.738;21.652;2022-08-01T08:17:51;6.10;;;2.85;;
69161;SDS011;56269;51.738;21.652;2022-08-01T08:20:17;6.80;;;3.30;;
69161;SDS011;56269;51.738;21.652;2022-08-01T08:22:43;6.60;;;2.80;;
69161;SDS011;56269;51.738;21.652;2022-08-01T08:25:09;7.82;;;3.15;;
69161;SDS011;56269;51.738;21.652;2022-08-01T08:27:37;5.63;;;2.80;;
69161;SDS011;56269;51.738;21.652;2022-08-01T08:30:04;5.60;;;2.77;;
69161;SDS011;56269;51.738;21.652;2022-08-01T08:32:33;5.87;;;2.90;;
69161;SDS011;56269;51.738;21.652;2022-08-01T08:35:00;6.13;;;2.70;;
69161;SDS011;56269;51.738;21.652;2022-08-01T08:37:26;5.10;;;2.42;;
69161;SDS011;56269;51.738;21.652;2022-08-01T08:39:52;5.20;;;2.67;;
69161;SDS011;56269;51.738;21.652;2022-08-01T08:42:19;4.80;;;2.30;;
69161;SDS011;56269;51.738;21.652;2022-08-01T08:44:45;6.20;;;2.70;;
69161;SDS011;56269;51.738;21.652;2022-08-01T08:47:11;5.40;;;2.40;;
69161;SDS011;56269;51.738;21.652;2022-08-01T08:49:39;7.78;;;2.38;;
69161;SDS011;56269;51.738;21.652;2022-08-01T08:52:08;5.03;;;2.35;;
69161;SDS011;56269;51.738;21.652;2022-08-01T08:54:35;5.07;;;2.40;;
69161;SDS011;56269;51.738;21.652;2022-08-01T08:57:04;6.40;;;2.38;;
69161;SDS011;56269;51.738;21.652;2022-08-01T08:59:30;4.63;;;2.15;;
69161;SDS011;56269;51.738;21.652;2022-08-01T09:01:57;5.07;;;2.30;;
69161;SDS011;56269;51.738;21.652;2022-08-01T09:04:24;4.93;;;2.30;;
69161;SDS011;56269;51.738;21.652;2022-08-01T09:06:51;6.40;;;2.10;;
69161;SDS011;56269;51.738;21.652;2022-08-01T09:09:17;5.65;;;2.10;;
69161;SDS011;56269;51.738;21.652;2022-08-01T09:11:44;5.53;;;2.20;;
69161;SDS011;56269;51.738;21.652;2022-08-01T09:14:11;4.30;;;2.00;;
69161;SDS011;56269;51.738;21.652;2022-08-01T09:16:42;6.18;;;2.40;;
69161;SDS011;56269;51.738;21.652;2022-08-01T09:19:19;6.23;;;2.23;;
69161;SDS011;56269;51.738;21.652;2022-08-01T09:21:56;7.88;;;2.50;;
69161;SDS011;56269;51.738;21.652;2022-08-01T09:24:24;6.75;;;2.30;;
69161;SDS011;56269;51.738;21.652;2022-08-01T09:26:52;6.53;;;2.20;;
69161;SDS011;56269;51.738;21.652;2022-08-01T09:29:19;4.90;;;2.20;;
69161;SDS011;56269;51.738;21.652;2022-08-01T09:31:50;5.50;;;2.20;;
69161;SDS011;56269;51.738;21.652;2022-08-01T09:34:24;6.45;;;1.90;;
69161;SDS011;56269;51.738;21.652;2022-08-01T09:36:57;5.38;;;1.77;;
69161;SDS011;56269;51.738;21.652;2022-08-01T09:39:29;5.25;;;2.33;;
69161;SDS011;56269;51.738;21.652;2022-08-01T09:41:58;5.43;;;2.08;;
69161;SDS011;56269;51.738;21.652;2022-08-01T09:44:38;6.57;;;2.00;;
69161;SDS011;56269;51.738;21.652;2022-08-01T09:47:09;5.95;;;2.03;;
69161;SDS011;56269;51.738;21.652;2022-08-01T09:49:36;4.45;;;1.85;;
69161;SDS011;56269;51.738;21.652;2022-08-01T09:54:36;3.97;;;1.73;;
69161;SDS011;56269;51.738;21.652;2022-08-01T09:57:15;6.87;;;2.40;;
69161;SDS011;56269;51.738;21.652;2022-08-01T09:59:44;5.40;;;2.20;;
69161;SDS011;56269;51.738;21.652;2022-08-01T10:02:11;7.05;;;2.40;;
69161;SDS011;56269;51.738;21.652;2022-08-01T10:04:47;5.63;;;2.15;;
69161;SDS011;56269;51.738;21.652;2022-08-01T10:07:14;5.45;;;2.22;;
69161;SDS011;56269;51.738;21.652;2022-08-01T10:09:41;5.37;;;2.00;;
69161;SDS011;56269;51.738;21.652;2022-08-01T10:12:08;5.55;;;2.40;;
69161;SDS011;56269;51.738;21.652;2022-08-01T10:14:36;5.10;;;2.08;;
69161;SDS011;56269;51.738;21.652;2022-08-01T10:17:03;4.85;;;2.00;;
69161;SDS011;56269;51.738;21.652;2022-08-01T10:19:34;5.68;;;2.30;;
69161;SDS011;56269;51.738;21.652;2022-08-01T10:22:00;4.77;;;2.10;;
69161;SDS011;56269;51.738;21.652;2022-08-01T10:27:21;5.88;;;2.38;;
69161;SDS011;56269;51.738;21.652;2022-08-01T10:29:54;5.68;;;2.20;;
69161;SDS011;56269;51.738;21.652;2022-08-01T10:32:34;5.40;;;2.40;;
69161;SDS011;56269;51.738;21.652;2022-08-01T10:35:01;6.17;;;2.33;;
69161;SDS011;56269;51.738;21.652;2022-08-01T10:37:29;8.77;;;2.50;;
69161;SDS011;56269;51.738;21.652;2022-08-01T10:39:55;7.07;;;2.30;;
69161;SDS011;56269;51.738;21.652;2022-08-01T10:42:22;4.80;;;2.25;;
69161;SDS011;56269;51.738;21.652;2022-08-01T10:44:48;5.38;;;2.30;;
69161;SDS011;56269;51.738;21.652;2022-08-01T10:47:18;7.00;;;2.10;;
69161;SDS011;56269;51.738;21.652;2022-08-01T10:49:56;6.55;;;2.33;;
69161;SDS011;56269;51.738;21.652;2022-08-01T10:52:29;5.05;;;2.13;;
69161;SDS011;56269;51.738;21.652;2022-08-01T10:55:05;5.00;;;1.92;;
69161;SDS011;56269;51.738;21.652;2022-08-01T10:57:44;5.63;;;1.80;;
69161;SDS011;56269;51.738;21.652;2022-08-01T11:00:20;6.23;;;1.93;;
69161;SDS011;56269;51.738;21.652;2022-08-01T11:03:01;5.10;;;2.10;;
69161;SDS011;56269;51.738;21.652;2022-08-01T11:05:35;5.35;;;2.28;;
69161;SDS011;56269;51.738;21.652;2022-08-01T11:08:03;5.20;;;2.03;;
69161;SDS011;56269;51.738;21.652;2022-08-01T11:10:38;5.25;;;2.00;;
69161;SDS011;56269;51.738;21.652;2022-08-01T11:13:08;5.43;;;1.93;;
69161;SDS011;56269;51.738;21.652;2022-08-01T11:15:40;5.88;;;2.20;;
69161;SDS011;56269;51.738;21.652;2022-08-01T11:20:58;5.35;;;1.85;;
69161;SDS011;56269;51.738;21.652;2022-08-01T11:23:46;4.68;;;2.00;;
69161;SDS011;56269;51.738;21.652;2022-08-01T11:26:15;5.13;;;1.90;;
69161;SDS011;56269;51.738;21.652;2022-08-01T11:28:42;4.65;;;1.90;;
69161;SDS011;56269;51.738;21.652;2022-08-01T11:38:38;5.20;;;2.20;;
69161;SDS011;56269;51.738;21.652;2022-08-01T11:41:13;5.22;;;2.10;;
69161;SDS011;56269;51.738;21.652;2022-08-01T11:44:04;5.13;;;2.03;;
69161;SDS011;56269;51.738;21.652;2022-08-01T11:46:47;5.10;;;2.13;;
69161;SDS011;56269;51.738;21.652;2022-08-01T11:52:04;4.33;;;1.97;;
69161;SDS011;56269;51.738;21.652;2022-08-01T11:54:32;4.75;;;2.05;;
69161;SDS011;56269;51.738;21.652;2022-08-01T11:57:04;5.43;;;2.00;;
69161;SDS011;56269;51.738;21.652;2022-08-01T11:59:43;5.30;;;2.00;;
69161;SDS011;56269;51.738;21.652;2022-08-01T12:02:24;4.60;;;1.90;;
69161;SDS011;56269;51.738;21.652;2022-08-01T12:04:56;5.53;;;1.90;;
69161;SDS011;56269;51.738;21.652;2022-08-01T12:07:23;5.55;;;2.00;;
69161;SDS011;56269;51.738;21.652;2022-08-01T12:09:58;6.35;;;2.10;;
69161;SDS011;56269;51.738;21.652;2022-08-01T12:12:42;4.60;;;1.90;;
69161;SDS011;56269;51.738;21.652;2022-08-01T12:15:12;4.70;;;2.20;;
69161;SDS011;56269;51.738;21.652;2022-08-01T12:17:39;4.47;;;1.80;;
69161;SDS011;56269;51.738;21.652;2022-08-01T12:20:07;5.50;;;2.20;;
69161;SDS011;56269;51.738;21.652;2022-08-01T12:22:35;5.25;;;2.10;;
69161;SDS011;56269;51.738;21.652;2022-08-01T12:25:09;5.07;;;2.00;;
69161;SDS011;56269;51.738;21.652;2022-08-01T12:27:37;6.05;;;2.15;;
69161;SDS011;56269;51.738;21.652;2022-08-01T12:30:08;4.60;;;1.93;;
69161;SDS011;56269;51.738;21.652;2022-08-01T12:32:37;4.75;;;1.90;;
69161;SDS011;56269;51.738;21.652;2022-08-01T12:35:08;4.82;;;2.00;;
69161;SDS011;56269;51.738;21.652;2022-08-01T12:37:36;5.00;;;1.58;;
69161;SDS011;56269;51.738;21.652;2022-08-01T12:42:56;4.33;;;2.00;;
69161;SDS011;56269;51.738;21.652;2022-08-01T12:45:24;4.90;;;1.90;;
69161;SDS011;56269;51.738;21.652;2022-08-01T12:47:59;4.15;;;1.67;;
69161;SDS011;56269;51.738;21.652;2022-08-01T12:50:27;6.57;;;2.00;;
69161;SDS011;56269;51.738;21.652;2022-08-01T12:52:55;4.72;;;1.98;;
69161;SDS011;56269;51.738;21.652;2022-08-01T12:55:23;4.83;;;1.80;;
69161;SDS011;56269;51.738;21.652;2022-08-01T12:58:02;5.47;;;2.20;;
69161;SDS011;56269;51.738;21.652;2022-08-01T13:00:33;5.85;;;2.00;;
69161;SDS011;56269;51.738;21.652;2022-08-01T13:03:06;4.18;;;1.90;;
69161;SDS011;56269;51.738;21.652;2022-08-01T13:05:40;6.13;;;2.20;;
69161;SDS011;56269;51.738;21.652;2022-08-01T13:08:09;4.17;;;1.87;;
69161;SDS011;56269;51.738;21.652;2022-08-01T13:10:40;4.50;;;1.98;;
69161;SDS011;56269;51.738;21.652;2022-08-01T13:13:06;7.47;;;2.20;;
69161;SDS011;56269;51.738;21.652;2022-08-01T13:15:34;7.20;;;2.00;;
69161;SDS011;56269;51.738;21.652;2022-08-01T13:18:23;5.65;;;2.20;;
69161;SDS011;56269;51.738;21.652;2022-08-01T13:26:47;4.95;;;2.00;;
69161;SDS011;56269;51.738;21.652;2022-08-01T13:29:17;4.80;;;2.22;;
69161;SDS011;56269;51.738;21.652;2022-08-01T13:31:45;5.45;;;2.10;;
69161;SDS011;56269;51.738;21.652;2022-08-01T13:34:12;12.70;;;2.50;;
69161;SDS011;56269;51.738;21.652;2022-08-01T13:36:39;5.78;;;2.30;;
69161;SDS011;56269;51.738;21.652;2022-08-01T13:39:05;4.70;;;2.25;;
69161;SDS011;56269;51.738;21.652;2022-08-01T13:41:50;5.38;;;2.50;;
69161;SDS011;56269;51.738;21.652;2022-08-01T13:44:16;5.93;;;2.70;;
69161;SDS011;56269;51.738;21.652;2022-08-01T13:46:42;5.47;;;2.70;;
69161;SDS011;56269;51.738;21.652;2022-08-01T13:49:10;6.55;;;2.90;;
69161;SDS011;56269;51.738;21.652;2022-08-01T13:51:37;6.22;;;2.70;;
69161;SDS011;56269;51.738;21.652;2022-08-01T13:54:04;6.38;;;3.40;;
69161;SDS011;56269;51.738;21.652;2022-08-01T13:56:31;6.47;;;3.30;;
69161;SDS011;56269;51.738;21.652;2022-08-01T13:58:57;5.63;;;3.17;;
69161;SDS011;56269;51.738;21.652;2022-08-01T14:01:23;7.32;;;3.35;;
69161;SDS011;56269;51.738;21.652;2022-08-01T14:03:50;6.60;;;3.60;;
69161;SDS011;56269;51.738;21.652;2022-08-01T14:06:19;7.45;;;3.42;;
69161;SDS011;56269;51.738;21.652;2022-08-01T14:08:47;6.53;;;3.47;;
69161;SDS011;56269;51.738;21.652;2022-08-01T14:11:14;6.78;;;3.30;;
69161;SDS011;56269;51.738;21.652;2022-08-01T14:13:41;6.47;;;3.58;;
69161;SDS011;56269;51.738;21.652;2022-08-01T14:16:07;6.60;;;3.35;;
69161;SDS011;56269;51.738;21.652;2022-08-01T14:18:33;7.47;;;3.38;;
69161;SDS011;56269;51.738;21.652;2022-08-01T14:20:59;6.10;;;3.50;;
69161;SDS011;56269;51.738;21.652;2022-08-01T14:23:25;7.85;;;3.65;;
69161;SDS011;56269;51.738;21.652;2022-08-01T14:25:51;6.68;;;3.90;;
69161;SDS011;56269;51.738;21.652;2022-08-01T14:28:18;8.65;;;3.58;;
69161;SDS011;56269;51.738;21.652;2022-08-01T14:30:44;5.72;;;3.22;;
69161;SDS011;56269;51.738;21.652;2022-08-01T14:33:11;6.93;;;3.47;;
69161;SDS011;56269;51.738;21.652;2022-08-01T14:35:38;10.40;;;3.92;;
69161;SDS011;56269;51.738;21.652;2022-08-01T14:38:05;5.63;;;3.33;;
69161;SDS011;56269;51.738;21.652;2022-08-01T14:40:31;6.68;;;3.72;;
69161;SDS011;56269;51.738;21.652;2022-08-01T14:42:57;7.22;;;3.60;;
69161;SDS011;56269;51.738;21.652;2022-08-01T14:45:23;6.60;;;3.50;;
69161;SDS011;56269;51.738;21.652;2022-08-01T14:47:50;6.70;;;3.67;;
69161;SDS011;56269;51.738;21.652;2022-08-01T14:50:16;6.57;;;3.70;;
69161;SDS011;56269;51.738;21.652;2022-08-01T14:52:42;7.38;;;3.67;;
69161;SDS011;56269;51.738;21.652;2022-08-01T14:55:09;7.83;;;4.00;;
69161;SDS011;56269;51.738;21.652;2022-08-01T14:57:37;6.57;;;3.80;;
69161;SDS011;56269;51.738;21.652;2022-08-01T15:00:05;6.68;;;4.10;;
69161;SDS011;56269;51.738;21.652;2022-08-01T15:02:35;8.07;;;3.90;;
69161;SDS011;56269;51.738;21.652;2022-08-01T15:05:01;7.37;;;3.93;;
69161;SDS011;56269;51.738;21.652;2022-08-01T15:07:27;6.93;;;4.00;;
69161;SDS011;56269;51.738;21.652;2022-08-01T15:09:53;6.35;;;3.90;;
69161;SDS011;56269;51.738;21.652;2022-08-01T15:12:19;6.70;;;4.20;;
69161;SDS011;56269;51.738;21.652;2022-08-01T15:14:45;7.00;;;3.97;;
69161;SDS011;56269;51.738;21.652;2022-08-01T15:17:14;7.03;;;3.97;;
69161;SDS011;56269;51.738;21.652;2022-08-01T15:19:45;7.13;;;3.80;;